New Orleans, Louisiana
Current Conditions -  °F | °C
As of 12:15 AM on Sunday 23 Nov 2014 (Local Time) from KVSH Reporting Station
Overcast Overcast  
Wind Chill: 61°   Ceiling: 400
Heat Index: 61°   Visibility: 9mi
Dew Point: 57°   Wind: 10mph
Humidity: 88%   Direction: 80°E
Pressure: 29.87"   Gusts: NA
Location:  29.95°N, 90.08°W
Report Text: KVSH 230615Z AUTO 08009KT 9SM OVC004 16/14 A2987 RMK AO1
Loading
Personal Weather Stations






























Interactive Weather Map New forecast layout! Learn more

10-Day Weather Forecast

Advertisements
Track Severe Weather on mobile